createdAt,value
2022-11-11T00:01:21.264Z,101482.41
2022-11-11T00:04:08.033Z,101486.84
2022-11-11T00:06:55.220Z,101478.31
2022-11-11T00:09:41.893Z,101478.31
2022-11-11T00:12:28.975Z,101469.72
2022-11-11T00:15:17.556Z,101483.59
2022-11-11T00:18:22.467Z,101475.38
2022-11-11T00:21:32.033Z,101469.47
2022-11-11T00:24:42.707Z,101474.31
2022-11-11T00:27:29.752Z,101476.97
2022-11-11T00:30:18.220Z,101467.41
2022-11-11T00:33:05.383Z,101485.91
2022-11-11T00:35:57.369Z,101490.38
2022-11-11T00:38:47.460Z,101494.00
2022-11-11T00:41:34.901Z,101493.19
2022-11-11T00:44:22.067Z,101488.91
2022-11-11T00:47:28.479Z,101488.09
2022-11-11T00:50:36.552Z,101488.28
2022-11-11T00:53:27.700Z,101504.13
2022-11-11T00:56:14.836Z,101521.81
2022-11-11T00:59:02.109Z,101520.38
2022-11-11T01:01:49.565Z,101529.97
2022-11-11T01:04:37.947Z,101526.50
2022-11-11T01:07:25.610Z,101526.66
2022-11-11T01:10:13.730Z,101517.91
2022-11-11T01:13:12.599Z,101517.09
2022-11-11T01:16:02.616Z,101510.34
2022-11-11T01:18:50.866Z,101502.63
2022-11-11T01:21:39.480Z,101501.59
2022-11-11T01:24:27.016Z,101504.44
2022-11-11T01:27:14.558Z,101511.53
2022-11-11T01:30:01.899Z,101511.53
2022-11-11T01:32:48.987Z,101512.53
2022-11-11T01:35:40.560Z,101508.41
2022-11-11T01:38:28.748Z,101511.25
2022-11-11T01:41:34.281Z,101514.25
2022-11-11T01:44:46.440Z,101515.81
2022-11-11T01:51:01.907Z,101518.16
2022-11-11T01:53:53.543Z,101519.19
2022-11-11T01:56:42.297Z,101513.09
2022-11-11T01:59:32.063Z,101511.44
2022-11-11T02:02:26.198Z,101511.44
2022-11-11T02:05:42.785Z,101502.88
2022-11-11T02:08:35.265Z,101510.16
2022-11-11T02:11:39.112Z,101506.06
2022-11-11T02:14:40.076Z,101514.81
2022-11-11T02:17:32.526Z,101500.94
2022-11-11T02:20:24.654Z,101503.59
2022-11-11T02:23:17.015Z,101506.25
2022-11-11T02:26:07.207Z,101506.59
2022-11-11T02:28:56.258Z,101501.50
2022-11-11T02:31:43.137Z,101488.50
2022-11-11T02:34:35.470Z,101474.63
2022-11-11T02:37:27.469Z,101484.38
2022-11-11T02:40:18.740Z,101487.19
2022-11-11T02:43:07.536Z,101491.03
2022-11-11T02:45:55.043Z,101489.56
2022-11-11T02:48:41.941Z,101500.97
2022-11-11T02:51:29.092Z,101494.03
2022-11-11T02:54:16.000Z,101501.97
2022-11-11T02:57:09.373Z,101522.28
2022-11-11T03:00:00.643Z,101520.63
2022-11-11T03:02:47.324Z,101522.44
2022-11-11T03:05:34.450Z,101517.34
2022-11-11T03:08:21.816Z,101505.31
2022-11-11T03:11:09.085Z,101509.78
2022-11-11T03:13:56.209Z,101504.50
2022-11-11T03:17:01.893Z,101516.09
2022-11-11T03:19:48.770Z,101523.19
2022-11-11T03:25:44.369Z,101533.91
2022-11-11T03:28:31.421Z,101535.75
2022-11-11T03:31:19.244Z,101534.28
2022-11-11T03:34:19.415Z,101536.91
2022-11-11T03:37:27.033Z,101559.06
2022-11-11T03:40:15.005Z,101550.69
2022-11-11T03:43:04.988Z,101560.44
2022-11-11T03:45:53.573Z,101561.44
2022-11-11T03:48:40.489Z,101546.56
2022-11-11T03:51:28.924Z,101547.56
2022-11-11T03:54:15.700Z,101565.44
2022-11-11T03:57:22.448Z,101553.22
2022-11-11T04:00:14.441Z,101566.59
2022-11-11T04:03:21.911Z,101566.75
2022-11-11T04:06:29.249Z,101569.78
2022-11-11T04:09:35.528Z,101565.47
2022-11-11T04:12:23.562Z,101578.88
2022-11-11T04:15:28.451Z,101578.06
2022-11-11T04:18:15.497Z,101579.22
2022-11-11T04:21:20.180Z,101587.34
2022-11-11T04:24:22.318Z,101591.97
2022-11-11T04:27:14.163Z,101588.69
2022-11-11T04:30:00.357Z,101592.31
2022-11-11T04:32:47.625Z,101587.03
2022-11-11T04:35:35.057Z,101600.25
2022-11-11T04:38:39.327Z,101599.41
2022-11-11T04:41:40.751Z,101608.50
2022-11-11T04:44:46.643Z,101597.31
2022-11-11T04:47:33.706Z,101606.25
2022-11-11T04:50:20.571Z,101604.59
2022-11-11T04:53:10.337Z,101597.00
2022-11-11T04:56:14.654Z,101603.13
2022-11-11T04:59:20.376Z,101593.75
2022-11-11T05:02:26.949Z,101595.56
2022-11-11T05:05:14.262Z,101589.63
2022-11-11T05:08:18.626Z,101584.53
2022-11-11T05:11:06.360Z,101582.88
2022-11-11T05:14:12.189Z,101582.06
2022-11-11T05:17:17.635Z,101585.03
2022-11-11T05:20:24.608Z,101580.97
2022-11-11T05:23:11.586Z,101587.22
2022-11-11T05:25:57.691Z,101589.84
2022-11-11T05:28:44.838Z,101595.13
2022-11-11T05:31:32.209Z,101590.84
2022-11-11T05:34:19.154Z,101596.13
2022-11-11T05:37:07.485Z,101593.69
2022-11-11T05:39:54.454Z,101602.41
2022-11-11T05:42:48.441Z,101601.75
2022-11-11T05:45:37.973Z,101599.31
2022-11-11T05:48:25.031Z,101611.50
2022-11-11T05:51:28.265Z,101600.13
2022-11-11T05:54:17.416Z,101604.78
2022-11-11T05:57:04.753Z,101615.34
2022-11-11T05:59:51.539Z,101614.66
2022-11-11T06:02:39.250Z,101616.31
2022-11-11T06:05:37.179Z,101619.28
2022-11-11T06:08:24.151Z,101621.94
2022-11-11T06:11:12.673Z,101621.94
2022-11-11T06:13:59.601Z,101626.38
2022-11-11T06:16:46.462Z,101609.25
2022-11-11T06:19:33.610Z,101623.94
2022-11-11T06:22:41.127Z,101632.00
2022-11-11T06:25:47.385Z,101638.28
2022-11-11T06:28:36.066Z,101628.88
2022-11-11T06:31:25.929Z,101632.38
2022-11-11T06:34:13.064Z,101628.88
2022-11-11T06:37:00.155Z,101635.84
2022-11-11T06:39:46.960Z,101641.28
2022-11-11T06:47:12.554Z,101670.16
2022-11-11T06:49:59.602Z,101660.59
2022-11-11T06:53:06.758Z,101679.75
2022-11-11T06:55:54.244Z,101665.06
2022-11-11T06:58:41.423Z,101667.53
2022-11-11T07:01:28.298Z,101673.66
2022-11-11T07:04:16.809Z,101676.28
2022-11-11T07:07:32.117Z,101687.00
2022-11-11T07:10:19.587Z,101682.53
2022-11-11T07:13:06.628Z,101690.44
2022-11-11T07:15:53.415Z,101687.00
2022-11-11T07:18:40.448Z,101684.53
2022-11-11T07:21:28.742Z,101693.44
2022-11-11T07:24:15.421Z,101695.91
2022-11-11T07:27:02.373Z,101692.44
2022-11-11T07:29:49.672Z,101697.84
2022-11-11T07:32:37.642Z,101697.72
2022-11-11T07:35:25.372Z,101705.75
2022-11-11T07:38:13.679Z,101704.94
2022-11-11T07:41:02.592Z,101713.19
2022-11-11T07:43:49.693Z,101704.31
2022-11-11T07:46:36.633Z,101705.94
2022-11-11T07:50:07.562Z,101707.09
2022-11-11T07:52:55.840Z,101707.59
2022-11-11T07:55:46.322Z,101709.41
2022-11-11T07:58:33.151Z,101708.41
2022-11-11T08:01:20.462Z,101706.94
2022-11-11T08:04:07.880Z,101705.13
2022-11-11T08:06:54.600Z,101710.22
2022-11-11T08:09:41.746Z,101707.59
2022-11-11T08:12:47.315Z,101697.84
2022-11-11T08:15:34.287Z,101699.66
2022-11-11T08:18:21.506Z,101697.72
2022-11-11T08:21:09.500Z,101690.63
2022-11-11T08:27:03.980Z,101696.38
2022-11-11T08:29:52.329Z,101697.88
2022-11-11T08:32:39.480Z,101698.34
2022-11-11T08:35:34.271Z,101698.34
2022-11-11T08:38:43.113Z,101702.44
2022-11-11T08:42:07.775Z,101695.34
2022-11-11T09:29:30.524Z,101722.72
2022-11-11T09:32:21.105Z,101721.34
2022-11-11T09:35:11.578Z,101736.19
2022-11-11T09:38:03.969Z,101735.69
2022-11-11T09:41:14.981Z,101741.81
2022-11-11T09:44:03.434Z,101734.50
2022-11-11T09:47:03.934Z,101733.16
2022-11-11T09:50:02.408Z,101724.06
2022-11-11T09:53:03.210Z,101722.09
2022-11-11T09:59:31.584Z,101717.91
2022-11-11T10:06:42.299Z,101684.03
2022-11-11T10:09:37.941Z,101707.13
2022-11-11T10:12:29.094Z,101692.75
2022-11-11T10:15:19.522Z,101704.75
2022-11-11T10:18:19.647Z,101699.94
2022-11-11T10:21:16.413Z,101698.97
2022-11-11T10:24:09.153Z,101701.06
2022-11-11T10:26:56.211Z,101699.91
2022-11-11T10:29:44.631Z,101697.88
2022-11-11T10:32:35.368Z,101691.22
2022-11-11T10:35:27.156Z,101679.69
2022-11-11T10:38:28.048Z,101677.66
2022-11-11T10:41:20.714Z,101681.78
2022-11-11T10:44:22.444Z,101671.03
2022-11-11T10:47:17.432Z,101675.94
2022-11-11T10:50:09.830Z,101673.78
2022-11-11T10:53:07.581Z,101670.78
2022-11-11T10:56:01.707Z,101667.13
2022-11-11T10:58:54.858Z,101662.31
2022-11-11T11:01:46.237Z,101648.91
2022-11-11T11:04:38.908Z,101654.66
2022-11-11T11:07:31.179Z,101651.66
2022-11-11T11:10:24.508Z,101647.84
2022-11-11T11:13:17.915Z,101656.25
2022-11-11T11:16:10.380Z,101653.03
2022-11-11T11:19:17.919Z,101656.34
2022-11-11T11:22:05.727Z,101654.34
2022-11-11T11:24:52.633Z,101650.34
2022-11-11T11:27:41.071Z,101656.25
2022-11-11T11:30:28.300Z,101659.34
2022-11-11T11:33:15.254Z,101650.41
2022-11-11T11:36:18.161Z,101650.03
2022-11-11T11:39:05.100Z,101650.31
2022-11-11T11:41:52.319Z,101647.13
2022-11-11T11:44:41.322Z,101645.94
2022-11-11T11:47:54.291Z,101638.63
2022-11-11T11:50:53.451Z,101621.38
2022-11-11T11:53:57.055Z,101612.06
2022-11-11T11:56:47.728Z,101611.69
2022-11-11T11:59:41.392Z,101625.22
2022-11-11T12:03:00.567Z,101627.66
2022-11-11T12:05:50.794Z,101635.69
2022-11-11T12:09:02.573Z,101631.66
2022-11-11T12:11:59.543Z,101621.34
2022-11-11T12:15:12.186Z,101616.28
2022-11-11T12:18:32.131Z,101619.84
2022-11-11T12:21:23.824Z,101627.84
2022-11-11T12:24:28.482Z,101628.91
2022-11-11T12:27:25.295Z,101633.47
2022-11-11T12:30:19.816Z,101632.09
2022-11-11T12:33:49.524Z,101623.13
2022-11-11T12:36:42.317Z,101639.91
2022-11-11T12:40:08.622Z,101633.63
2022-11-11T12:43:12.740Z,101635.72
2022-11-11T12:46:14.224Z,101622.28
2022-11-11T12:49:13.486Z,101621.28
2022-11-11T12:52:17.593Z,101620.06
2022-11-11T12:55:20.474Z,101628.84
2022-11-11T12:58:21.297Z,101631.09
2022-11-11T13:01:20.863Z,101620.72
2022-11-11T13:04:37.165Z,101627.03
2022-11-11T13:07:44.668Z,101627.03
2022-11-11T13:10:42.701Z,101628.66
2022-11-11T13:13:47.741Z,101630.50
2022-11-11T13:16:36.004Z,101629.84
2022-11-11T13:19:33.237Z,101631.88
2022-11-11T13:22:25.234Z,101640.22
2022-11-11T13:25:26.024Z,101633.22
2022-11-11T13:28:20.807Z,101632.41
2022-11-11T13:31:24.935Z,101643.19
2022-11-11T13:34:15.654Z,101633.41
2022-11-11T13:37:06.417Z,101635.88
2022-11-11T13:39:58.677Z,101634.06
2022-11-11T13:42:53.861Z,101629.75
2022-11-11T13:45:44.190Z,101622.63
2022-11-11T13:48:35.040Z,101630.56
2022-11-11T13:51:28.351Z,101632.41
2022-11-11T13:54:27.697Z,101628.94
2022-11-11T13:57:22.643Z,101632.41
2022-11-11T14:00:27.697Z,101629.94
2022-11-11T14:03:36.367Z,101631.78
2022-11-11T14:06:56.383Z,101630.13
2022-11-11T14:09:58.844Z,101630.13
2022-11-11T14:12:46.933Z,101633.22
2022-11-11T14:15:38.505Z,101638.38
2022-11-11T14:18:55.832Z,101637.56
2022-11-11T14:21:53.206Z,101643.47
2022-11-11T14:24:45.950Z,101642.47
2022-11-11T14:27:35.086Z,101649.22
2022-11-11T14:30:34.782Z,101641.91
2022-11-11T14:33:37.812Z,101644.72
2022-11-11T14:36:33.757Z,101640.28
2022-11-11T14:39:38.301Z,101636.59
2022-11-11T14:42:48.014Z,101629.69
2022-11-11T14:46:02.324Z,101636.97
2022-11-11T14:48:59.388Z,101640.44
2022-11-11T14:51:56.328Z,101641.09
2022-11-11T14:55:16.757Z,101634.34
2022-11-11T14:58:13.040Z,101641.09
2022-11-11T15:01:06.121Z,101633.97
2022-11-11T15:03:54.952Z,101638.25
2022-11-11T15:06:47.755Z,101636.41
2022-11-11T15:10:00.986Z,101644.34
2022-11-11T15:13:21.563Z,101639.69
2022-11-11T15:16:21.403Z,101650.28
2022-11-11T15:19:31.165Z,101648.66
2022-11-11T15:22:40.165Z,101649.28
2022-11-11T15:25:43.001Z,101644.78
2022-11-11T15:28:55.427Z,101650.91
2022-11-11T15:31:51.292Z,101646.25
2022-11-11T15:34:44.802Z,101645.25
2022-11-11T15:37:32.436Z,101639.94
2022-11-11T15:40:21.300Z,101638.75
2022-11-11T15:43:17.806Z,101639.56
2022-11-11T15:46:07.185Z,101637.72
2022-11-11T15:48:54.680Z,101639.56
2022-11-11T15:51:41.728Z,101641.19
2022-11-11T15:54:28.660Z,101647.34
2022-11-11T15:57:23.944Z,101644.88
2022-11-11T16:00:30.466Z,101640.38
2022-11-11T16:03:20.006Z,101641.19
2022-11-11T16:06:11.104Z,101643.84
2022-11-11T16:08:58.096Z,101648.16
2022-11-11T16:11:45.436Z,101658.75
2022-11-11T16:14:38.568Z,101651.63
2022-11-11T16:17:32.289Z,101647.34
2022-11-11T16:20:27.909Z,101643.84
2022-11-11T16:23:18.820Z,101649.16
2022-11-11T16:26:06.668Z,101645.69
2022-11-11T16:28:56.371Z,101650.97
2022-11-11T16:31:46.047Z,101647.50
2022-11-11T16:34:53.777Z,101651.19
2022-11-11T16:37:53.208Z,101652.00
2022-11-11T16:40:44.399Z,101634.25
2022-11-11T16:43:33.880Z,101640.38
2022-11-11T16:46:42.068Z,101642.59
2022-11-11T16:49:32.867Z,101632.63
2022-11-11T16:52:24.188Z,101632.63
2022-11-11T16:55:19.875Z,101628.34
2022-11-11T16:58:14.812Z,101626.50
2022-11-11T17:01:03.452Z,101627.34
2022-11-11T17:03:56.159Z,101632.63
2022-11-11T17:06:59.835Z,101622.41
2022-11-11T17:09:48.535Z,101635.44
2022-11-11T17:12:37.641Z,101633.81
2022-11-11T17:15:24.590Z,101641.59
2022-11-11T17:18:14.106Z,101628.53
2022-11-11T17:21:01.405Z,101639.13
2022-11-11T17:23:48.455Z,101634.84
2022-11-11T17:26:38.691Z,101626.06
2022-11-11T17:29:25.918Z,101630.72
2022-11-11T17:32:12.677Z,101648.25
2022-11-11T17:34:59.838Z,101641.34
2022-11-11T17:37:46.717Z,101638.69
2022-11-11T17:40:33.773Z,101641.34
2022-11-11T17:43:22.206Z,101636.41
2022-11-11T17:46:09.345Z,101643.97
2022-11-11T17:48:57.366Z,101646.00
2022-11-11T17:51:44.611Z,101649.66
2022-11-11T17:54:31.327Z,101658.41
2022-11-11T17:57:18.516Z,101657.59
2022-11-11T18:00:08.520Z,101648.03
2022-11-11T18:02:55.732Z,101652.31
2022-11-11T18:05:42.676Z,101657.59
2022-11-11T18:08:31.248Z,101649.84
2022-11-11T18:11:18.365Z,101665.75
2022-11-11T18:14:05.724Z,101659.00
2022-11-11T18:16:53.998Z,101660.63
2022-11-11T18:19:40.697Z,101664.28
2022-11-11T18:22:27.650Z,101665.31
2022-11-11T18:25:15.181Z,101665.09
2022-11-11T18:28:02.117Z,101660.00
2022-11-11T18:30:49.023Z,101657.34
2022-11-11T18:33:38.902Z,101665.31
2022-11-11T18:36:25.842Z,101669.97
2022-11-11T18:39:12.813Z,101668.31
2022-11-11T18:41:59.731Z,101666.69
2022-11-11T18:44:46.769Z,101672.00
2022-11-11T18:47:33.767Z,101674.78
2022-11-11T18:50:21.700Z,101671.31
2022-11-11T18:53:08.456Z,101672.34
2022-11-11T18:55:55.359Z,101682.13
2022-11-11T18:58:43.023Z,101683.75
2022-11-11T19:01:32.156Z,101681.31
2022-11-11T19:04:19.343Z,101686.59
2022-11-11T19:07:07.713Z,101684.94
2022-11-11T19:09:54.907Z,101672.50
2022-11-11T19:12:41.896Z,101675.16
2022-11-11T19:15:29.010Z,101678.66
2022-11-11T19:18:15.832Z,101672.50
2022-11-11T19:21:09.361Z,101668.44
2022-11-11T19:23:58.475Z,101668.22
2022-11-11T19:26:47.704Z,101670.06
2022-11-11T19:29:34.835Z,101665.78
2022-11-11T19:32:21.752Z,101667.78
2022-11-11T19:35:09.183Z,101672.25
2022-11-11T19:37:56.214Z,101670.63
2022-11-11T19:40:44.474Z,101679.59
2022-11-11T19:43:31.128Z,101677.75
2022-11-11T19:46:21.350Z,101678.50
2022-11-11T19:49:08.264Z,101694.84
2022-11-11T19:51:55.283Z,101689.75
2022-11-11T19:54:42.226Z,101693.38
2022-11-11T19:57:31.375Z,101681.34
2022-11-11T20:00:18.959Z,101689.47
2022-11-11T20:03:06.108Z,101692.09
2022-11-11T20:05:52.865Z,101689.47
2022-11-11T20:08:39.744Z,101695.78
2022-11-11T20:11:35.932Z,101695.94
2022-11-11T20:14:24.155Z,101694.13
2022-11-11T20:17:10.950Z,101687.19
2022-11-11T20:19:57.816Z,101692.84
2022-11-11T20:22:44.900Z,101696.34
2022-11-11T20:25:37.917Z,101693.84
2022-11-11T20:28:25.495Z,101698.72
2022-11-11T20:31:16.258Z,101693.25
2022-11-11T20:34:04.036Z,101695.59
2022-11-11T20:36:51.040Z,101695.25
2022-11-11T20:39:37.849Z,101699.06
2022-11-11T20:42:24.524Z,101699.88
2022-11-11T20:45:12.690Z,101691.31
2022-11-11T20:48:01.042Z,101701.72
2022-11-11T20:50:47.755Z,101700.09
2022-11-11T20:53:34.928Z,101694.78
2022-11-11T20:56:24.445Z,101700.09
2022-11-11T20:59:11.540Z,101699.28
2022-11-11T21:01:58.522Z,101694.13
2022-11-11T21:04:46.827Z,101704.94
2022-11-11T21:07:33.748Z,101704.13
2022-11-11T21:10:20.876Z,101705.94
2022-11-11T21:13:07.894Z,101703.31
2022-11-11T21:15:55.156Z,101698.38
2022-11-11T21:18:42.104Z,101700.81
2022-11-11T21:21:33.009Z,101706.50
2022-11-11T21:24:19.910Z,101700.38
2022-11-11T21:27:06.874Z,101694.44
2022-11-11T21:29:53.966Z,101694.63
2022-11-11T21:32:41.052Z,101698.28
2022-11-11T21:35:29.679Z,101691.34
2022-11-11T21:38:17.826Z,101695.00
2022-11-11T21:41:07.081Z,101697.81
2022-11-11T21:43:54.716Z,101682.31
2022-11-11T21:46:41.842Z,101695.53
2022-11-11T21:49:28.789Z,101690.25
2022-11-11T21:52:15.889Z,101689.63
2022-11-11T21:55:04.450Z,101681.84
2022-11-11T21:57:52.506Z,101681.25
2022-11-11T22:00:39.555Z,101690.00
2022-11-11T22:03:26.350Z,101683.69
2022-11-11T22:06:15.713Z,101673.47
2022-11-11T22:09:03.072Z,101680.59
2022-11-11T22:11:51.533Z,101681.59
2022-11-11T22:14:38.175Z,101684.25
2022-11-11T22:17:25.216Z,101682.63
2022-11-11T22:20:12.766Z,101676.47
2022-11-11T22:23:00.053Z,101686.44
2022-11-11T22:25:47.002Z,101681.16
2022-11-11T22:28:37.579Z,101685.78
2022-11-11T22:31:26.538Z,101686.81
2022-11-11T22:34:15.795Z,101681.72
2022-11-11T22:37:03.062Z,101686.16
2022-11-11T22:39:50.170Z,101684.72
2022-11-11T22:42:37.125Z,101678.59
2022-11-11T22:45:25.583Z,101681.63
2022-11-11T22:48:12.747Z,101679.13
2022-11-11T22:51:06.995Z,101685.63
2022-11-11T22:53:57.281Z,101681.31
2022-11-11T22:56:44.064Z,101676.88
2022-11-11T22:59:31.250Z,101674.41
2022-11-11T23:02:19.513Z,101664.00
2022-11-11T23:05:06.912Z,101669.66
2022-11-11T23:07:54.705Z,101672.09
2022-11-11T23:10:41.825Z,101669.47
2022-11-11T23:13:28.671Z,101671.50
2022-11-11T23:16:18.070Z,101666.38
2022-11-11T23:19:08.254Z,101662.91
2022-11-11T23:21:55.084Z,101660.63
2022-11-11T23:24:42.074Z,101659.63
2022-11-11T23:27:29.001Z,101657.00
2022-11-11T23:30:16.223Z,101665.09
2022-11-11T23:33:03.219Z,101661.63
2022-11-11T23:35:51.340Z,101667.28
2022-11-11T23:38:38.482Z,101678.50
2022-11-11T23:41:25.541Z,101678.69
2022-11-11T23:44:12.347Z,101678.06
2022-11-11T23:46:59.265Z,101677.25
2022-11-11T23:49:46.195Z,101677.59
2022-11-11T23:52:34.564Z,101682.88
2022-11-11T23:55:21.253Z,101679.59
2022-11-11T23:58:08.571Z,101673.28
